Time;durP1;ratioP1;P1;durP2;ratioP2;P2;SDS_P1;SDS_P2;PMS_P1;PMS_P2;Temp;Humidity;BMP_temperature;BMP_pressure;BME280_temperature;BME280_humidity;BME280_pressure;Samples;Min_cycle;Max_cycle;Signal;HPM_P1;HPM_P2
2023/12/27 00:00:52;;;;;;;1.33;0.80;;;8.00;99.90;;;;;;5045659;28;20656;-73
2023/12/27 00:03:18;;;;;;;1.47;1.10;;;8.10;99.90;;;;;;5052863;28;20652;-73
2023/12/27 00:05:45;;;;;;;3.13;1.47;;;8.10;99.90;;;;;;5048249;28;20623;-73
2023/12/27 00:08:12;;;;;;;0.83;0.83;;;8.00;99.90;;;;;;5046131;28;20635;-74
2023/12/27 00:10:40;;;;;;;1.93;1.43;;;8.00;99.90;;;;;;5044711;28;20629;-74
2023/12/27 00:13:07;;;;;;;0.60;0.40;;;8.00;99.90;;;;;;5044924;28;20635;-73
2023/12/27 00:15:34;;;;;;;0.80;0.80;;;8.00;99.90;;;;;;5047225;28;20626;-74
2023/12/27 00:18:00;;;;;;;3.60;1.40;;;8.00;99.90;;;;;;5043974;27;20669;-74
2023/12/27 00:20:27;;;;;;;1.13;1.03;;;8.00;99.90;;;;;;5043370;28;20657;-74
2023/12/27 00:22:54;;;;;;;3.27;1.40;;;8.10;99.90;;;;;;5049134;27;20668;-74
2023/12/27 00:25:21;;;;;;;1.90;1.37;;;8.00;99.90;;;;;;5045525;27;20633;-74
2023/12/27 00:27:49;;;;;;;0.77;0.50;;;8.00;99.90;;;;;;5052753;28;21024;-73
2023/12/27 00:30:16;;;;;;;1.17;0.70;;;8.00;99.90;;;;;;5056268;28;20729;-73
2023/12/27 00:32:43;;;;;;;1.90;0.87;;;8.00;99.90;;;;;;5062757;28;20740;-74
2023/12/27 00:35:09;;;;;;;2.60;1.00;;;8.00;99.90;;;;;;5056961;28;20657;-74
2023/12/27 00:37:36;;;;;;;2.30;1.03;;;8.00;99.90;;;;;;5060543;28;20673;-73
2023/12/27 00:40:03;;;;;;;1.10;1.00;;;8.00;99.90;;;;;;5054143;27;20630;-74
2023/12/27 00:42:30;;;;;;;2.03;1.20;;;8.00;99.90;;;;;;5071736;27;20659;-73
2023/12/27 00:44:58;;;;;;;1.30;1.20;;;8.00;99.90;;;;;;5055240;28;20627;-74
2023/12/27 00:47:25;;;;;;;0.60;0.60;;;8.00;99.90;;;;;;5049782;28;21264;-74
2023/12/27 00:49:51;;;;;;;1.30;1.03;;;8.00;99.90;;;;;;5071074;27;21171;-73
2023/12/27 00:52:18;;;;;;;2.07;0.97;;;8.00;99.90;;;;;;5051116;28;20632;-73
2023/12/27 00:54:45;;;;;;;1.20;1.00;;;8.00;99.90;;;;;;5044907;28;20631;-74
2023/12/27 00:57:12;;;;;;;4.53;1.53;;;8.00;99.90;;;;;;5054299;28;20677;-73
2023/12/27 00:59:38;;;;;;;1.37;1.07;;;7.90;99.90;;;;;;5050191;28;20633;-73
2023/12/27 01:02:08;;;;;;;0.50;0.50;;;7.90;99.90;;;;;;5052008;28;20632;-74
2023/12/27 01:04:35;;;;;;;1.30;1.00;;;7.80;99.90;;;;;;5044489;28;20627;-74
2023/12/27 01:07:01;;;;;;;1.13;0.80;;;7.70;99.90;;;;;;5047052;28;20664;-74
2023/12/27 01:09:28;;;;;;;1.50;0.80;;;7.70;99.90;;;;;;5048487;28;21213;-74
2023/12/27 01:11:54;;;;;;;1.03;0.80;;;7.70;99.90;;;;;;5048718;28;20647;-74
2023/12/27 01:14:21;;;;;;;0.70;0.70;;;7.70;99.90;;;;;;5047971;28;21194;-73
2023/12/27 01:16:47;;;;;;;0.80;0.80;;;7.60;99.90;;;;;;5041544;27;20200;-73
2023/12/27 01:19:16;;;;;;;1.20;1.10;;;7.60;99.90;;;;;;5044993;28;20631;-74
2023/12/27 01:21:42;;;;;;;1.20;1.10;;;7.50;99.90;;;;;;5042340;27;20984;-73
2023/12/27 01:24:09;;;;;;;1.47;1.37;;;7.60;99.90;;;;;;5043253;27;20680;-73
2023/12/27 01:26:36;;;;;;;1.60;0.80;;;7.60;99.90;;;;;;5043372;28;20722;-74
2023/12/27 01:29:03;;;;;;;1.20;1.10;;;7.50;99.90;;;;;;5048900;28;21219;-71
2023/12/27 01:31:29;;;;;;;0.80;0.80;;;7.50;99.90;;;;;;5056177;28;20632;-73
2023/12/27 01:33:56;;;;;;;1.53;0.70;;;7.40;99.90;;;;;;5053875;27;20618;-73
2023/12/27 01:36:24;;;;;;;1.37;1.10;;;7.40;99.90;;;;;;5055089;28;20626;-73
2023/12/27 01:38:51;;;;;;;1.13;1.03;;;7.40;99.90;;;;;;5056410;28;20730;-73
2023/12/27 01:41:18;;;;;;;1.67;1.57;;;7.40;99.90;;;;;;5049613;28;20634;-73
2023/12/27 01:43:44;;;;;;;0.97;0.87;;;7.40;99.90;;;;;;5050351;28;21359;-72
2023/12/27 01:46:12;;;;;;;0.77;0.77;;;7.40;99.90;;;;;;5051899;28;20626;-73
2023/12/27 01:48:41;;;;;;;5.10;1.70;;;7.40;99.90;;;;;;5052834;27;20645;-73
2023/12/27 01:51:08;;;;;;;1.37;0.73;;;7.40;99.90;;;;;;5074853;27;20627;-73
2023/12/27 01:53:37;;;;;;;0.80;0.80;;;7.40;99.90;;;;;;5045801;28;20686;-72
2023/12/27 01:56:05;;;;;;;1.30;0.93;;;7.40;99.90;;;;;;5046450;28;20804;-72
2023/12/27 01:58:34;;;;;;;1.23;1.13;;;7.40;99.90;;;;;;5046455;27;21011;-73
2023/12/27 02:01:01;;;;;;;1.00;1.00;;;7.50;99.90;;;;;;5050582;28;20643;-73
2023/12/27 02:03:28;;;;;;;1.00;0.87;;;7.50;99.90;;;;;;5052385;28;21051;-73
2023/12/27 02:05:56;;;;;;;1.07;1.07;;;7.50;99.90;;;;;;5038501;28;20626;-73
2023/12/27 02:08:23;;;;;;;3.10;1.63;;;7.40;99.90;;;;;;5051383;28;20674;-73
2023/12/27 02:10:51;;;;;;;1.00;0.77;;;7.40;99.90;;;;;;5041820;28;20637;-73
2023/12/27 02:13:19;;;;;;;0.90;0.90;;;7.30;99.90;;;;;;5041513;28;20631;-72
2023/12/27 02:15:47;;;;;;;1.20;0.90;;;7.30;99.90;;;;;;5035837;27;20629;-73
2023/12/27 02:18:15;;;;;;;0.83;0.80;;;7.30;99.90;;;;;;5051953;27;21231;-73
2023/12/27 02:20:44;;;;;;;0.80;0.73;;;7.30;99.90;;;;;;5038460;28;20629;-73
2023/12/27 02:23:13;;;;;;;1.43;1.23;;;7.30;99.90;;;;;;5039157;27;20639;-73
2023/12/27 02:25:44;;;;;;;1.57;0.80;;;7.30;99.90;;;;;;5047375;27;20638;-73
2023/12/27 02:28:11;;;;;;;1.53;1.17;;;7.30;99.90;;;;;;5044887;27;20631;-73
2023/12/27 02:30:38;;;;;;;1.10;0.90;;;7.30;99.90;;;;;;5049057;28;20632;-73
2023/12/27 02:33:05;;;;;;;2.20;1.00;;;7.30;99.90;;;;;;5044803;28;20625;-73
2023/12/27 02:35:31;;;;;;;1.40;1.30;;;7.30;99.90;;;;;;5053944;28;20971;-73
2023/12/27 02:37:58;;;;;;;1.27;1.17;;;7.30;99.90;;;;;;5057040;28;20660;-73
2023/12/27 02:40:25;;;;;;;3.10;1.77;;;7.40;99.90;;;;;;5053271;28;20626;-73
2023/12/27 02:42:54;;;;;;;0.87;0.80;;;7.40;99.90;;;;;;5047758;28;20851;-73
2023/12/27 02:45:21;;;;;;;4.03;0.93;;;7.30;99.90;;;;;;5053550;28;20669;-73
2023/12/27 02:47:48;;;;;;;4.77;1.47;;;7.10;99.90;;;;;;5049765;28;20639;-74
2023/12/27 02:50:16;;;;;;;1.93;1.10;;;7.10;99.90;;;;;;5060349;27;20621;-73
2023/12/27 02:52:43;;;;;;;3.57;1.00;;;7.10;99.90;;;;;;5049201;28;20626;-72
2023/12/27 02:55:11;;;;;;;2.30;1.00;;;7.10;99.90;;;;;;5041559;28;21042;-73
2023/12/27 02:57:38;;;;;;;1.17;0.80;;;7.10;99.90;;;;;;5052455;28;20676;-73
2023/12/27 03:00:09;;;;;;;2.60;1.20;;;7.10;99.90;;;;;;5048151;28;20976;-73
2023/12/27 03:02:36;;;;;;;1.90;1.00;;;7.10;99.90;;;;;;5047289;27;21068;-73
2023/12/27 03:05:03;;;;;;;2.53;0.77;;;7.10;99.90;;;;;;5049027;28;20683;-73
2023/12/27 03:07:32;;;;;;;3.13;1.20;;;7.10;99.90;;;;;;5049484;27;20636;-73
2023/12/27 03:10:00;;;;;;;1.20;1.10;;;7.10;99.90;;;;;;5047244;28;20630;-73
2023/12/27 03:12:28;;;;;;;3.83;1.10;;;7.10;99.90;;;;;;5046602;28;20636;-73
2023/12/27 03:14:55;;;;;;;1.73;1.20;;;7.20;99.90;;;;;;5048109;27;20658;-73
2023/12/27 03:17:25;;;;;;;1.20;1.10;;;7.10;99.90;;;;;;5041748;28;20630;-73
2023/12/27 03:19:52;;;;;;;2.03;1.00;;;7.20;99.90;;;;;;5037415;28;20658;-74
2023/12/27 03:22:19;;;;;;;1.30;1.00;;;7.20;99.90;;;;;;5047290;27;21000;-73
2023/12/27 03:24:46;;;;;;;1.40;1.13;;;7.20;99.90;;;;;;5030336;27;20630;-73
2023/12/27 03:27:13;;;;;;;1.50;1.40;;;7.20;99.90;;;;;;5038815;28;20633;-73
2023/12/27 03:29:40;;;;;;;1.13;1.00;;;7.20;99.90;;;;;;5060446;27;20698;-73
2023/12/27 03:32:08;;;;;;;0.97;0.97;;;7.30;99.90;;;;;;5079862;27;20970;-73
2023/12/27 03:34:38;;;;;;;1.37;1.03;;;7.40;99.90;;;;;;5082007;27;20641;-73
2023/12/27 03:37:05;;;;;;;1.57;1.33;;;7.40;99.90;;;;;;5082604;27;20629;-73
2023/12/27 03:39:33;;;;;;;1.10;1.00;;;7.40;99.90;;;;;;5091761;27;20726;-73
2023/12/27 03:42:00;;;;;;;3.60;1.70;;;7.30;99.90;;;;;;5070682;27;20724;-73
2023/12/27 03:44:29;;;;;;;1.33;1.20;;;7.30;99.90;;;;;;5086997;27;20697;-73
2023/12/27 03:46:58;;;;;;;2.20;1.47;;;7.30;99.90;;;;;;5046370;28;20631;-73
2023/12/27 03:49:24;;;;;;;1.23;1.13;;;7.30;99.90;;;;;;5047340;28;20991;-73
2023/12/27 03:51:52;;;;;;;2.90;1.40;;;7.20;99.90;;;;;;5048693;28;20705;-73
2023/12/27 03:54:20;;;;;;;2.60;1.40;;;7.20;99.90;;;;;;5053039;28;20626;-73
2023/12/27 03:56:47;;;;;;;2.07;1.57;;;7.30;99.90;;;;;;5054511;28;20627;-73
2023/12/27 03:59:14;;;;;;;3.57;1.63;;;7.30;99.90;;;;;;5060359;28;20673;-73
2023/12/27 04:01:41;;;;;;;2.40;1.40;;;7.30;99.90;;;;;;5043445;28;20626;-73
2023/12/27 04:04:08;;;;;;;2.17;1.33;;;7.30;99.90;;;;;;5059919;27;21191;-73
2023/12/27 04:06:35;;;;;;;8.53;2.53;;;7.20;99.90;;;;;;5056541;27;20636;-73
2023/12/27 04:09:03;;;;;;;2.53;1.70;;;7.20;99.90;;;;;;5055278;28;20629;-73
2023/12/27 04:11:30;;;;;;;2.20;1.53;;;7.30;99.90;;;;;;5054654;28;20639;-73
2023/12/27 04:13:57;;;;;;;2.67;1.87;;;7.30;99.90;;;;;;5055425;28;20632;-73
2023/12/27 04:16:24;;;;;;;2.87;1.73;;;7.30;99.90;;;;;;5057504;27;20666;-73
2023/12/27 04:18:51;;;;;;;2.00;1.50;;;7.30;99.90;;;;;;5047452;27;20889;-73
2023/12/27 04:21:20;;;;;;;1.57;1.47;;;7.30;99.90;;;;;;5051414;28;20639;-72
2023/12/27 04:23:46;;;;;;;1.27;1.03;;;7.30;99.90;;;;;;5049145;28;20718;-73
2023/12/27 04:26:14;;;;;;;1.40;1.07;;;7.40;99.90;;;;;;5051620;28;20634;-73
2023/12/27 04:28:41;;;;;;;3.23;1.50;;;7.50;99.90;;;;;;5049092;28;21217;-73
2023/12/27 04:31:08;;;;;;;1.23;1.00;;;7.40;99.90;;;;;;5045811;28;20627;-73
2023/12/27 04:33:35;;;;;;;1.73;1.63;;;7.40;99.90;;;;;;5043739;28;21188;-73
2023/12/27 04:36:01;;;;;;;4.90;2.40;;;7.40;99.90;;;;;;5044241;28;21196;-73
2023/12/27 04:38:28;;;;;;;1.80;1.70;;;7.40;99.90;;;;;;5044121;28;20660;-73
2023/12/27 04:40:55;;;;;;;3.30;2.23;;;7.40;99.90;;;;;;5059814;27;20633;-73
2023/12/27 04:43:23;;;;;;;1.13;1.10;;;7.40;99.90;;;;;;5032372;28;20632;-73
2023/12/27 04:45:50;;;;;;;1.20;1.10;;;7.40;99.90;;;;;;5037025;28;20625;-73
2023/12/27 04:48:17;;;;;;;1.57;1.37;;;7.40;99.90;;;;;;5038176;28;21014;-73
2023/12/27 04:50:43;;;;;;;3.80;1.73;;;7.30;99.90;;;;;;5051986;28;21500;-73
2023/12/27 04:53:10;;;;;;;3.30;1.80;;;7.30;99.90;;;;;;5057426;27;20777;-73
2023/12/27 04:55:37;;;;;;;2.30;1.80;;;7.10;99.90;;;;;;5042436;28;20627;-73
2023/12/27 04:58:04;;;;;;;2.13;1.10;;;7.10;99.90;;;;;;5061103;28;20986;-73
2023/12/27 05:00:32;;;;;;;1.47;1.20;;;7.10;99.90;;;;;;5059691;27;21195;-73
2023/12/27 05:02:59;;;;;;;1.43;1.33;;;7.00;99.90;;;;;;5057160;28;20729;-73
2023/12/27 05:05:26;;;;;;;1.40;1.00;;;7.00;99.90;;;;;;5051438;28;20685;-73
2023/12/27 05:07:52;;;;;;;2.20;1.93;;;6.90;99.90;;;;;;5055184;28;20658;-73
2023/12/27 05:10:19;;;;;;;1.97;1.33;;;6.70;99.90;;;;;;5050070;28;21042;-73
2023/12/27 05:12:46;;;;;;;1.67;1.57;;;6.60;99.90;;;;;;5046648;28;20654;-73
2023/12/27 05:15:13;;;;;;;3.73;1.27;;;6.50;99.90;;;;;;5047666;28;20638;-73
2023/12/27 05:17:41;;;;;;;2.73;1.60;;;6.50;99.90;;;;;;5047123;28;20628;-73
2023/12/27 05:20:08;;;;;;;3.10;1.97;;;6.50;99.90;;;;;;5047020;28;21078;-73
2023/12/27 05:22:39;;;;;;;1.60;1.50;;;6.50;99.90;;;;;;5051853;28;20642;-73
2023/12/27 05:25:07;;;;;;;2.90;2.70;;;6.60;99.90;;;;;;5043472;27;20633;-73
2023/12/27 05:27:34;;;;;;;3.77;2.73;;;6.60;99.90;;;;;;5044654;28;20612;-73
2023/12/27 05:30:02;;;;;;;5.53;3.20;;;6.50;99.90;;;;;;5043900;28;20633;-73
2023/12/27 05:32:28;;;;;;;5.78;3.50;;;6.50;99.90;;;;;;5048168;28;20733;-73
2023/12/27 05:34:57;;;;;;;5.23;3.70;;;6.40;99.90;;;;;;5048649;28;20206;-73
2023/12/27 05:37:23;;;;;;;2.77;2.57;;;6.40;99.90;;;;;;5048433;28;20730;-74
2023/12/27 05:39:50;;;;;;;3.33;2.17;;;6.40;99.90;;;;;;5047355;28;20733;-73
2023/12/27 05:42:17;;;;;;;6.10;2.63;;;6.30;99.90;;;;;;5045531;28;20678;-72
2023/12/27 05:44:44;;;;;;;3.43;2.50;;;6.30;99.90;;;;;;5047065;28;20196;-73
2023/12/27 05:47:11;;;;;;;5.90;2.73;;;6.40;99.90;;;;;;5043396;28;20994;-73
2023/12/27 05:49:39;;;;;;;2.17;1.53;;;6.50;99.90;;;;;;5042664;27;20630;-73
2023/12/27 05:52:07;;;;;;;1.90;1.80;;;6.40;99.90;;;;;;5055959;28;20637;-73
2023/12/27 05:54:34;;;;;;;2.20;1.90;;;6.40;99.90;;;;;;5053752;28;20207;-74
2023/12/27 05:57:01;;;;;;;2.80;2.40;;;6.40;99.90;;;;;;5051254;28;20200;-73
2023/12/27 05:59:27;;;;;;;1.70;1.60;;;6.40;99.90;;;;;;5061809;28;20775;-73
2023/12/27 06:01:54;;;;;;;4.18;3.00;;;6.30;99.90;;;;;;5055403;28;20703;-74
2023/12/27 06:04:22;;;;;;;2.73;2.53;;;6.40;99.90;;;;;;5059958;28;20680;-73
2023/12/27 06:06:49;;;;;;;2.37;2.17;;;6.40;99.90;;;;;;5052340;28;20633;-73
2023/12/27 06:09:18;;;;;;;3.30;2.95;;;6.50;99.90;;;;;;5058730;28;21049;-73
2023/12/27 06:11:45;;;;;;;2.92;2.65;;;6.40;99.90;;;;;;5052251;28;20640;-72
2023/12/27 06:14:12;;;;;;;3.40;2.90;;;6.30;99.90;;;;;;5057215;28;20207;-73
2023/12/27 06:16:39;;;;;;;3.60;3.30;;;6.30;99.90;;;;;;5054277;28;20628;-71
2023/12/27 06:19:06;;;;;;;2.60;2.40;;;6.20;99.90;;;;;;5053915;28;20659;-74
2023/12/27 06:21:33;;;;;;;2.13;2.03;;;6.10;99.90;;;;;;5048316;27;20633;-73
2023/12/27 06:23:59;;;;;;;1.77;1.67;;;6.10;99.90;;;;;;5048382;27;20211;-74
2023/12/27 06:26:27;;;;;;;2.80;2.57;;;6.10;99.90;;;;;;5048178;27;20639;-74
2023/12/27 06:28:54;;;;;;;5.33;3.00;;;6.20;99.90;;;;;;5039943;28;21144;-73
2023/12/27 06:31:21;;;;;;;3.10;1.90;;;6.20;99.90;;;;;;5039917;28;20666;-73
2023/12/27 06:33:48;;;;;;;1.83;1.55;;;6.30;99.90;;;;;;5055157;27;20633;-73
2023/12/27 06:36:14;;;;;;;3.30;2.40;;;6.30;99.90;;;;;;5046362;28;20212;-74
2023/12/27 06:38:45;;;;;;;5.68;3.33;;;6.20;99.90;;;;;;5046836;28;20668;-74
2023/12/27 06:41:12;;;;;;;3.78;2.50;;;6.10;99.90;;;;;;5045943;27;20839;-73
2023/12/27 06:43:41;;;;;;;2.80;2.37;;;6.10;99.90;;;;;;5044691;28;20699;-70
2023/12/27 06:46:08;;;;;;;2.60;2.27;;;6.00;99.90;;;;;;5043472;28;21030;-77
2023/12/27 06:48:35;;;;;;;2.58;2.00;;;5.90;99.90;;;;;;5037831;28;20646;-73
2023/12/27 06:51:03;;;;;;;2.70;2.13;;;5.80;99.90;;;;;;5039186;27;20209;-73
2023/12/27 06:53:29;;;;;;;2.33;2.07;;;5.80;99.90;;;;;;5044180;28;20208;-74
2023/12/27 06:55:56;;;;;;;2.40;1.92;;;5.70;99.90;;;;;;5059716;27;20637;-74
2023/12/27 06:58:23;;;;;;;2.37;1.90;;;5.70;99.90;;;;;;5049761;28;20276;-74
2023/12/27 07:00:51;;;;;;;3.20;2.10;;;5.70;99.90;;;;;;5051860;27;20670;-74
2023/12/27 07:03:18;;;;;;;2.55;1.98;;;5.70;99.90;;;;;;5078838;27;20192;-73
2023/12/27 07:05:45;;;;;;;2.67;2.20;;;5.70;99.90;;;;;;5052211;27;20648;-73
2023/12/27 07:08:11;;;;;;;1.70;1.60;;;5.60;99.90;;;;;;5053009;28;20552;-73
2023/12/27 07:10:38;;;;;;;2.20;1.60;;;5.50;99.90;;;;;;5055097;28;20560;-73
2023/12/27 07:13:05;;;;;;;2.55;2.20;;;5.50;99.90;;;;;;5057919;28;20269;-73
2023/12/27 07:15:32;;;;;;;2.05;1.75;;;5.60;99.90;;;;;;5059396;28;20214;-73
2023/12/27 07:18:00;;;;;;;2.42;2.25;;;5.50;99.90;;;;;;5056784;28;20204;-73
2023/12/27 07:20:27;;;;;;;3.33;3.03;;;5.50;99.90;;;;;;5058053;28;20525;-73
2023/12/27 07:22:53;;;;;;;3.38;2.10;;;5.60;99.90;;;;;;5052102;28;20204;-73
2023/12/27 07:25:20;;;;;;;4.43;2.70;;;5.60;99.90;;;;;;5056879;28;20287;-73
2023/12/27 07:27:47;;;;;;;2.58;2.25;;;5.70;99.90;;;;;;5054550;28;20203;-73
2023/12/27 07:30:15;;;;;;;2.80;2.60;;;5.70;99.90;;;;;;5053829;28;20291;-73
2023/12/27 07:32:42;;;;;;;3.72;3.42;;;5.70;99.90;;;;;;5053392;28;20546;-73
2023/12/27 07:35:10;;;;;;;3.75;3.30;;;5.80;99.90;;;;;;5047216;28;20260;-73
2023/12/27 07:37:37;;;;;;;2.85;2.15;;;5.80;99.90;;;;;;5050766;28;20206;-73
2023/12/27 07:40:04;;;;;;;3.78;3.03;;;5.90;99.90;;;;;;5049845;27;20232;-73
2023/12/27 07:42:31;;;;;;;5.65;4.30;;;5.80;99.90;;;;;;5050669;27;20272;-73
2023/12/27 07:44:58;;;;;;;5.05;3.60;;;5.80;99.90;;;;;;5048550;28;20312;-73
2023/12/27 07:47:25;;;;;;;3.70;3.40;;;5.90;99.90;;;;;;5047670;28;20247;-73
2023/12/27 07:49:55;;;;;;;12.82;3.80;;;5.90;99.90;;;;;;5049915;27;20204;-73
2023/12/27 07:52:23;;;;;;;5.57;4.35;;;5.90;99.90;;;;;;5046744;28;20227;-73
2023/12/27 07:54:50;;;;;;;3.13;2.92;;;5.90;99.90;;;;;;5043301;28;20223;-73
2023/12/27 07:57:16;;;;;;;4.18;3.60;;;6.00;99.90;;;;;;5054771;28;20282;-73
2023/12/27 07:59:43;;;;;;;3.28;2.55;;;5.90;99.90;;;;;;5049825;28;20226;-73
2023/12/27 08:02:10;;;;;;;3.05;2.38;;;5.90;99.90;;;;;;5062633;28;20310;-73
2023/12/27 08:04:37;;;;;;;3.58;2.80;;;5.80;99.90;;;;;;5060894;28;20207;-73
2023/12/27 08:07:04;;;;;;;4.20;2.97;;;5.80;99.90;;;;;;5041241;28;20213;-73
2023/12/27 08:09:32;;;;;;;3.63;2.97;;;5.90;99.90;;;;;;5044179;28;20731;-73
2023/12/27 08:11:59;;;;;;;3.17;2.80;;;5.90;99.90;;;;;;5052505;27;20207;-73
2023/12/27 08:14:26;;;;;;;7.13;3.17;;;5.90;99.90;;;;;;5059407;28;20195;-73
2023/12/27 08:16:53;;;;;;;3.25;2.95;;;5.90;99.90;;;;;;5056398;28;20568;-73
2023/12/27 08:19:20;;;;;;;2.92;2.72;;;5.90;99.90;;;;;;5053826;28;20272;-73
2023/12/27 08:21:47;;;;;;;2.90;2.67;;;6.00;99.90;;;;;;5054704;27;20542;-73
2023/12/27 08:24:13;;;;;;;2.90;2.65;;;6.00;99.90;;;;;;5051578;28;20192;-73
2023/12/27 08:26:42;;;;;;;5.95;2.60;;;5.90;99.90;;;;;;5054816;28;20274;-73
2023/12/27 08:29:09;;;;;;;4.90;3.25;;;6.00;99.90;;;;;;5052428;28;20192;-73
2023/12/27 08:31:35;;;;;;;3.53;2.85;;;6.00;99.90;;;;;;5053652;28;20232;-73
2023/12/27 08:34:02;;;;;;;4.90;3.67;;;6.10;99.90;;;;;;5048133;28;20342;-73
2023/12/27 08:36:30;;;;;;;3.20;2.72;;;6.10;99.90;;;;;;5052783;27;20243;-73
2023/12/27 08:38:57;;;;;;;5.50;3.97;;;6.10;99.90;;;;;;5043744;28;20211;-73
2023/12/27 08:41:24;;;;;;;3.00;2.63;;;6.10;99.90;;;;;;5049420;28;20238;-73
2023/12/27 08:43:53;;;;;;;2.95;2.65;;;6.20;99.90;;;;;;5048548;27;21168;-73
2023/12/27 08:46:21;;;;;;;3.70;3.25;;;6.30;99.90;;;;;;5047803;28;20208;-73
2023/12/27 08:48:48;;;;;;;10.20;3.40;;;6.40;99.90;;;;;;5046387;28;20213;-73
2023/12/27 08:51:15;;;;;;;4.88;3.90;;;6.40;99.90;;;;;;5048116;27;20635;-73
2023/12/27 08:53:42;;;;;;;3.30;3.00;;;6.50;99.90;;;;;;5042097;28;20699;-73
2023/12/27 08:56:09;;;;;;;5.97;3.17;;;6.50;99.90;;;;;;5057285;28;21181;-73
2023/12/27 08:58:36;;;;;;;4.65;3.38;;;6.40;99.90;;;;;;5063391;28;20210;-74
2023/12/27 09:01:04;;;;;;;5.03;3.53;;;6.50;99.90;;;;;;5062674;28;20322;-72
2023/12/27 09:03:31;;;;;;;3.63;2.97;;;6.50;99.90;;;;;;5062222;28;20629;-72
2023/12/27 09:05:58;;;;;;;4.18;3.05;;;6.50;99.90;;;;;;5060114;28;20626;-73
2023/12/27 09:08:24;;;;;;;2.97;2.17;;;6.50;99.90;;;;;;5061417;28;20285;-72
2023/12/27 09:10:51;;;;;;;4.33;3.30;;;6.60;99.90;;;;;;5057379;28;20626;-73
2023/12/27 09:13:18;;;;;;;1.77;1.67;;;6.60;99.90;;;;;;5059948;28;20630;-73
2023/12/27 09:15:45;;;;;;;8.83;3.30;;;6.60;99.90;;;;;;5056726;28;20739;-72
2023/12/27 09:18:13;;;;;;;3.40;3.10;;;6.60;99.90;;;;;;5057589;28;20623;-72
2023/12/27 09:20:39;;;;;;;3.28;2.70;;;6.80;99.90;;;;;;5055519;28;20223;-72
2023/12/27 09:23:07;;;;;;;2.85;2.45;;;6.80;99.90;;;;;;5051285;28;20207;-73
2023/12/27 09:25:33;;;;;;;2.80;2.60;;;6.80;99.90;;;;;;5055788;28;20514;-73
2023/12/27 09:28:00;;;;;;;1.73;1.60;;;6.80;99.90;;;;;;5052180;28;20211;-73
2023/12/27 09:30:27;;;;;;;2.07;1.90;;;6.80;99.90;;;;;;5053733;28;20621;-73
2023/12/27 09:32:54;;;;;;;2.93;2.53;;;6.80;99.90;;;;;;5050909;27;20658;-72
2023/12/27 09:35:22;;;;;;;2.83;2.40;;;6.90;99.90;;;;;;5048641;28;20622;-72
2023/12/27 09:37:49;;;;;;;2.23;2.00;;;7.00;99.90;;;;;;5049568;28;20625;-72
2023/12/27 09:40:16;;;;;;;1.77;1.67;;;7.10;99.90;;;;;;5048407;28;20674;-73
2023/12/27 09:42:44;;;;;;;2.17;1.73;;;7.00;99.90;;;;;;5046087;28;21227;-72
2023/12/27 09:45:16;;;;;;;3.03;2.20;;;7.10;99.90;;;;;;5047672;28;20742;-72
2023/12/27 09:47:46;;;;;;;1.80;1.70;;;7.10;99.90;;;;;;5047612;27;21036;-72
2023/12/27 09:50:13;;;;;;;2.30;2.07;;;7.20;99.90;;;;;;5048516;27;21137;-73
2023/12/27 09:52:44;;;;;;;3.00;2.43;;;7.20;99.90;;;;;;5045506;28;20957;-73
2023/12/27 09:55:11;;;;;;;2.45;1.80;;;7.20;99.90;;;;;;5041031;28;20962;-72
2023/12/27 09:57:38;;;;;;;3.33;2.37;;;7.20;99.90;;;;;;5060877;28;20227;-72
2023/12/27 10:00:08;;;;;;;3.40;1.43;;;7.10;99.90;;;;;;5062334;28;20684;-72
2023/12/27 10:02:37;;;;;;;3.57;2.20;;;7.20;99.90;;;;;;5061934;27;20720;-72
2023/12/27 10:05:11;;;;;;;2.90;2.13;;;7.30;99.90;;;;;;5047589;28;20951;-73
2023/12/27 10:07:40;;;;;;;2.50;2.20;;;7.30;99.90;;;;;;5059834;27;20637;-73
2023/12/27 10:10:09;;;;;;;2.10;1.90;;;7.50;99.90;;;;;;5046275;28;20202;-72
2023/12/27 10:12:36;;;;;;;3.80;1.97;;;7.50;99.90;;;;;;5058972;28;20638;-72
2023/12/27 10:15:04;;;;;;;3.93;2.00;;;7.50;99.90;;;;;;5057107;28;20633;-72
2023/12/27 10:17:31;;;;;;;1.30;1.20;;;7.50;99.90;;;;;;5057299;28;20673;-72
2023/12/27 10:19:58;;;;;;;2.73;1.80;;;7.60;99.90;;;;;;5054097;28;21022;-73
2023/12/27 10:22:24;;;;;;;2.17;1.97;;;7.60;99.90;;;;;;5054803;27;20724;-72
2023/12/27 10:24:51;;;;;;;2.80;1.85;;;7.70;99.90;;;;;;5052798;28;20630;-73
2023/12/27 10:27:21;;;;;;;1.97;1.50;;;7.70;99.90;;;;;;5054257;28;20203;-72
2023/12/27 10:29:48;;;;;;;2.20;1.93;;;7.70;99.90;;;;;;5052146;27;20955;-73
2023/12/27 10:32:16;;;;;;;2.07;1.93;;;7.80;99.90;;;;;;5051062;28;20626;-72
2023/12/27 10:34:43;;;;;;;1.63;1.40;;;7.80;99.90;;;;;;5048532;28;20721;-72
2023/12/27 10:37:12;;;;;;;2.60;2.00;;;7.80;99.90;;;;;;5049418;28;20633;-72
2023/12/27 10:39:44;;;;;;;1.40;1.30;;;7.80;99.90;;;;;;5045750;28;20725;-72
2023/12/27 10:42:13;;;;;;;1.37;1.27;;;7.90;99.90;;;;;;5047608;28;20630;-73
2023/12/27 10:44:41;;;;;;;1.60;1.50;;;7.90;99.90;;;;;;5048441;28;20633;-72
2023/12/27 10:47:11;;;;;;;2.10;1.60;;;8.00;99.90;;;;;;5046399;28;20972;-72
2023/12/27 10:49:42;;;;;;;4.40;1.80;;;8.00;99.90;;;;;;5054760;27;20679;-72
2023/12/27 10:52:10;;;;;;;3.63;2.07;;;8.00;99.90;;;;;;5048234;28;20626;-72
2023/12/27 10:54:41;;;;;;;1.40;1.30;;;8.20;99.20;;;;;;5044675;28;20623;-72
2023/12/27 10:57:15;;;;;;;2.53;1.63;;;8.30;98.60;;;;;;5046663;28;20629;-73
2023/12/27 10:59:47;;;;;;;2.43;1.13;;;8.30;97.80;;;;;;5064147;28;20640;-72
2023/12/27 11:02:14;;;;;;;1.07;1.03;;;8.40;97.90;;;;;;5065174;27;20736;-72
2023/12/27 11:04:43;;;;;;;2.77;0.97;;;8.50;96.90;;;;;;5063761;27;20636;-72
2023/12/27 11:07:11;;;;;;;1.63;1.50;;;8.60;96.60;;;;;;5064411;28;20628;-72
2023/12/27 11:09:39;;;;;;;1.70;1.43;;;8.70;96.60;;;;;;5062053;28;20630;-73
2023/12/27 11:12:09;;;;;;;1.37;1.20;;;8.70;96.60;;;;;;5061814;28;20624;-73
2023/12/27 11:14:37;;;;;;;1.20;1.20;;;8.70;96.60;;;;;;5061434;28;20632;-72
2023/12/27 11:17:07;;;;;;;2.20;1.40;;;8.80;96.30;;;;;;5059423;28;20615;-73
2023/12/27 11:19:35;;;;;;;1.13;1.03;;;8.70;96.50;;;;;;5060474;27;20701;-73
2023/12/27 11:22:02;;;;;;;2.70;2.20;;;8.70;96.60;;;;;;5056087;28;20674;-73
2023/12/27 11:24:29;;;;;;;1.40;1.27;;;8.70;96.50;;;;;;5056044;28;20630;-73
2023/12/27 11:27:00;;;;;;;2.00;1.13;;;8.80;96.90;;;;;;5054802;28;20626;-73
2023/12/27 11:29:28;;;;;;;1.53;1.17;;;8.80;96.20;;;;;;5049633;28;20636;-72
2023/12/27 11:31:55;;;;;;;2.00;1.80;;;8.90;96.00;;;;;;5052923;28;21201;-73
2023/12/27 11:34:23;;;;;;;1.37;1.17;;;8.90;96.00;;;;;;5051522;28;20636;-73
2023/12/27 11:36:51;;;;;;;1.60;1.47;;;8.90;95.70;;;;;;5052682;28;20626;-73
2023/12/27 11:39:19;;;;;;;1.80;1.70;;;9.00;96.00;;;;;;5052213;28;20744;-73
2023/12/27 11:41:46;;;;;;;1.30;1.20;;;9.10;96.00;;;;;;5051677;28;20677;-72
2023/12/27 11:44:15;;;;;;;1.70;1.03;;;9.20;95.40;;;;;;5049951;28;20651;-73
2023/12/27 11:46:43;;;;;;;2.00;1.13;;;9.30;95.00;;;;;;5050271;28;20632;-72
2023/12/27 11:49:09;;;;;;;4.20;1.20;;;9.40;94.20;;;;;;5047714;28;20652;-72
2023/12/27 11:51:38;;;;;;;1.40;1.30;;;9.40;94.40;;;;;;5051989;27;20648;-72
2023/12/27 11:54:07;;;;;;;3.50;2.00;;;9.60;93.30;;;;;;5043703;28;21184;-72
2023/12/27 11:56:35;;;;;;;1.83;1.73;;;9.70;93.40;;;;;;5045723;27;20644;-73
2023/12/27 11:59:05;;;;;;;5.37;2.00;;;9.70;93.70;;;;;;5057436;28;20736;-73
2023/12/27 12:01:35;;;;;;;2.87;2.57;;;9.70;93.50;;;;;;5063575;27;20677;-73
2023/12/27 12:04:21;;;;;;;3.87;2.43;;;9.80;92.90;;;;;;5048873;28;21163;-72
2023/12/27 12:07:20;;;;;;;1.77;1.67;;;9.90;92.60;;;;;;5061799;28;20627;-73
2023/12/27 12:09:47;;;;;;;1.67;1.40;;;9.90;92.70;;;;;;5060146;28;20715;-73
2023/12/27 12:12:17;;;;;;;5.40;3.30;;;9.90;93.00;;;;;;5060980;28;20630;-73
2023/12/27 12:14:45;;;;;;;2.47;1.57;;;9.90;92.20;;;;;;5059248;28;20632;-73
2023/12/27 12:17:14;;;;;;;2.00;1.30;;;9.90;91.70;;;;;;5059696;28;20628;-73
2023/12/27 12:19:40;;;;;;;3.23;1.30;;;9.90;91.20;;;;;;5058290;28;20731;-73
2023/12/27 12:22:07;;;;;;;4.60;1.90;;;9.90;90.80;;;;;;5056314;28;20676;-73
2023/12/27 12:24:36;;;;;;;3.17;1.80;;;9.90;91.10;;;;;;5054214;28;20740;-73
2023/12/27 12:27:03;;;;;;;2.03;1.80;;;10.00;89.90;;;;;;5054004;28;20724;-73
2023/12/27 12:29:30;;;;;;;1.43;1.27;;;10.00;88.80;;;;;;5056749;27;20624;-73
2023/12/27 12:31:58;;;;;;;2.20;1.93;;;9.90;90.40;;;;;;5047726;28;20720;-73
2023/12/27 12:34:25;;;;;;;1.73;1.60;;;10.00;89.90;;;;;;5051400;27;20624;-73
2023/12/27 12:36:53;;;;;;;1.27;1.20;;;10.00;88.30;;;;;;5051430;28;20655;-73
2023/12/27 12:39:21;;;;;;;1.30;1.00;;;10.00;89.10;;;;;;5051714;28;20638;-72
2023/12/27 12:41:50;;;;;;;1.83;1.10;;;10.00;87.90;;;;;;5050638;27;20680;-73
2023/12/27 12:44:17;;;;;;;1.60;1.40;;;10.00;89.00;;;;;;5049255;27;20646;-73
2023/12/27 12:46:44;;;;;;;2.13;1.20;;;10.00;89.70;;;;;;5046259;28;20628;-73
2023/12/27 12:49:13;;;;;;;1.30;1.17;;;10.00;90.20;;;;;;5047403;28;20646;-72
2023/12/27 12:51:40;;;;;;;1.03;1.00;;;10.10;90.10;;;;;;5051823;27;20629;-72
2023/12/27 12:54:08;;;;;;;2.77;1.17;;;10.20;90.00;;;;;;5042980;27;20634;-73
2023/12/27 12:56:39;;;;;;;1.30;1.10;;;10.20;90.20;;;;;;5044899;28;20634;-73
2023/12/27 12:59:08;;;;;;;1.23;1.10;;;10.20;89.00;;;;;;5057755;28;20629;-73